Livingston, MT

6:08 AM MDT on September 21, 2014 (GMT -0600)
Mission | Change Station
CLOSE
Current Station
Airport
Location: Livingston,
Elevation: 4656 ft
Nearby Weather Stations

Elev 4656 ft 45.70 °N, 110.44 °W | Updated 15 minutes ago

Clear
Clear
41 °F
Feels Like 38 °F
N
5
Wind Variable Wind from NW

Today
High -- | Low -- °F
--% Chance of Precip.
Yesterday
High -- | Low -- °F
Precip. -- in
7:08 AM 7:21 PM
Waning Crescent, 7% visible
Pressure 30.25 in
Visibility 10.0 miles
Clouds Clear
Windchill 38 °F
Dew Point 38 °F
Humidity 89%
Rainfall 0.00 in
Snow Depth 1 in , 0 in , 0 in
UV 0 out of 12
Pollen 5.70 out of 12
Air Quality Not available.
Flu Activity Not available.
METAR KLVM 211153Z AUTO 32004KT 10SM CLR 05/03 A3030 RMK AO2 SLP241 T00500033 10128 20050 58002

More Conditions Fewer Conditions

Pressure 30.25 in
Visibility 10.0 miles
Clouds Clear
Windchill 38 °F
Dew Point 38 °F
Humidity 89%
Rainfall 0.00 in
Snow Depth 1 in , 0 in , 0 in
UV 0 out of 12
Pollen 5.70 out of 12
Air Quality Not available.
Flu Activity Not available.
METAR KLVM 211153Z AUTO 32004KT 10SM CLR 05/03 A3030 RMK AO2 SLP241 T00500033 10128 20050 58002

More Conditions Fewer Conditions

10-Day Weather Forecast

Almanac

Astronomy

Sep. 21, 2014 Rise Set
Actual Time 7:08 AM MDT 7:21 PM MDT
Civil Twilight 6:38 AM MDT 7:51 PM MDT
Nautical Twilight 6:03 AM MDT 8:26 PM MDT
Astronomical Twilight 5:27 AM MDT 9:01 PM MDT
Moon 4:39 AM MDT 6:03 PM MDT
Length of Visible Light 13h 12m
Length of Day
12h 13m
Tomorrow will be 3m 11s shorter.
Waning Crescent, 7% of the Moon is Illuminated
Today
Waning Crescent
Sep 24
New
Oct 1
First Quarter
Oct 8
Full
Oct 15
Last Quarter

Today's Extremes

State Highs State Lows

Community

WunderPhotos

Upload Photos

1,755,126 photos uploaded!

Nearby

Snow Depth

Station Depth Elevation
Garver Creek 1 in 4250 ft
Dupuyer Creek 0 in 5750 ft
Hoodoo Basin 0 in 6050 ft
Combination 0 in 5600 ft
Lick Creek 0 in 6860 ft

Earthquake Activity

City Distance Mag. Time & Date
No recent earthquake activity has been reported nearby.
Minimum magnitude displayed is 2.5.

Coastal Water Temperatures

Place Temperature
No Stations Reporting

Nearby Weather Stations